Andrews Air Force Base
KADW : now visible

Airfield :











YOU CAN JOIN US ON...

 
LOGIN :

Register | Disclaimer

   EN    FR    IT 

 









Legend :    VFR   Marginal VFR   IFR   Intensive IFR   Very Intensive IFR
Visi :
Ceiling :
>= 8 km
>= 3000ft
5 to 8 km
1000 to 3000 ft
1500m to 5 km
500 to 1000 ft
800 to 1500m
200 to 500 ft
< 800m
< 200 ft
Symbols :   Thunderstorms  Fog  Heavy snow  Heavy precipitations  Wind > 20 kt






- Airport Elevation : 280 ft


KADW - Andrews Air Force Base

CURRENT METAR :
  • 191956Z AUTO 13003KT 5SM HZ FEW030 FEW200 15/08 A2983 RMK AO2 SLP108 T01480081 $

EXPIRED METARs :
  • 191856Z AUTO 15005KT 9SM SCT160 SCT190 14/08 A2986 RMK AO2 SLP119 T01350077 $
  • 191756Z 17006KT 10SM FEW015 BKN080 13/08 A2987 RMK AO2A SLP122 60002 T01270084 10130 20112 55003 $

TAF TAF KADW
Valid from the 19 at 17:00 until the 20 at 23:00 UTC


191700Z 1917/2023 VRB03KT 9999 VCSH SCT050 OVC100 QNH2985INS
BECMG 1917/1918 16008KT 9999 NSW SCT120 SCT200 QNH2984INS
BECMG 1919/1920 14005KT 9999 SKC QNH2984INS
BECMG 2004/2005 22005KT 9999 SKC QNH2992INS
BECMG 2009/2010 23005KT 6000 BR SKC QNH2994INS
BECMG 2013/2014 23010KT 9999 NSW SCT250 QNH2997INS TX20/2017Z TN08/2011Z
KZDC FIR / North America



MET'MAP, your aeronautical weather chart ! - Copyright ORBIFLY December 2007 - Disclaimer

ORBIFLY MET'MAP TEAM :

Programming & Development : Alexandra Zaïnal
Concept & original design : Baudouin d'Aumeries
Assistance for programming : Marc-Olivier Méhu
Technical & hardware support : Manuel Goepfert

Contact : metmap@orbifly.com




SOURCES & CREDITS :

   NOAA       Earth
Advisory